ADDS METAR Data INFO
IDs: Format: Raw Decoded Include TAF

Data at: 1342 UTC 25 Feb 2018

KMWK 251335Z AUTO 33003KT 5SM -RA BKN008 BKN015 BKN019 17/14 A3006 RMK AO2 T01670142
KMWK 251315Z AUTO 00000KT 5SM RA SCT012 BKN020 OVC027 17/15 A3006 RMK AO2 T01700145
KMWK 251255Z AUTO 25005KT 10SM SCT025 SCT030 BKN080 18/15 A3004 RMK AO2 T01770145
KMWK 251235Z AUTO 21003KT 10SM BKN090 18/15 A3001 RMK AO2 T01770145
KMWK 251215Z AUTO 21004KT 10SM BKN090 18/15 A3000 RMK AO2 T01780145
KMWK 251155Z AUTO 20005KT 10SM BKN090 18/15 A3000 RMK AO2 T01780145 10198 20178
KMWK 251135Z AUTO 22003KT 10SM SCT090 18/15 A2999 RMK AO2 T01800145
KMWK 251115Z AUTO 21004KT 10SM CLR 18/15 A2999 RMK AO2 T01800145
KMWK 251055Z AUTO 21004KT 10SM CLR 18/15 A2998 RMK AO2 T01800145
KMWK 251035Z AUTO 18004KT 10SM CLR 18/15 A2998 RMK AO2 T01800145
KMWK 251015Z AUTO 19004KT 10SM CLR 18/15 A2999 RMK AO2 T01810145
KMWK 250955Z AUTO 17004KT 10SM CLR 18/14 A2999 RMK AO2 T01790143
KMWK 250935Z AUTO 18004KT 10SM CLR 18/14 A2999 RMK AO2 T01790141
KMWK 250915Z AUTO 19005KT 10SM CLR 18/14 A2999 RMK AO2 T01810141
KMWK 250855Z AUTO 17004KT 10SM SCT095 18/14 A3000 RMK AO2 T01840143
KMWK 250835Z AUTO 18005KT 10SM SCT060 SCT095 19/14 A3001 RMK AO2 T01850143
KMWK 250815Z AUTO 18005KT 10SM CLR 19/14 A3000 RMK AO2 T01860142
KMWK 250755Z AUTO 16006KT 10SM SCT075 SCT090 19/14 A3001 RMK AO2 T01870142
KMWK 250735Z AUTO 17004KT 10SM SCT070 SCT075 19/14 A3002 RMK AO2 T01900143
KMWK 250715Z AUTO 19003KT 10SM CLR 19/14 A3003 RMK AO2 T01900143
KMWK 250655Z AUTO 15004KT 10SM SCT060 SCT070 SCT080 19/15 A3004 RMK AO2 T01930145
KMWK 250635Z AUTO 20005KT 10SM SCT060 BKN080 20/15 A3004 RMK AO2 T01980146
KMWK 250615Z AUTO 19005KT 10SM SCT065 BKN080 20/15 A3004 RMK AO2 T01960146
KMWK 250555Z AUTO 20004KT 10SM SCT065 SCT080 20/15 A3005 RMK AO2 T01950145 10217 20192 402400085
KMWK 250535Z AUTO 17003KT 10SM SCT065 20/15 A3004 RMK AO2 T01950145
KMWK 250515Z AUTO 00000KT 10SM SCT055 SCT075 20/15 A3005 RMK AO2 T01960145
KMWK 250455Z AUTO 00000KT 10SM BKN055 BKN075 20/15 A3005 RMK AO2 T01960145
KMWK 250435Z AUTO 00000KT 10SM BKN055 BKN065 20/15 A3006 RMK AO2 T01970145
KMWK 250415Z AUTO 00000KT 10SM SCT065 BKN075 20/15 A3007 RMK AO2 T01960145
KMWK 250355Z AUTO 00000KT 10SM BKN065 BKN075 20/15 A3007 RMK AO2 T01950145
KMWK 250335Z AUTO 15003KT 10SM SCT085 19/14 A3006 RMK AO2 T01940144
KMWK 250315Z AUTO 00000KT 10SM CLR 19/15 A3006 RMK AO2 T01930145
KMWK 250255Z AUTO 15003KT 10SM CLR 20/14 A3005 RMK AO2 T01950144
KMWK 250235Z AUTO 00000KT 10SM CLR 20/15 A3006 RMK AO2 T01980146
KMWK 250215Z AUTO 00000KT 10SM CLR 20/15 A3006 RMK AO2 T02010147
KMWK 250155Z AUTO 15003KT 10SM SCT085 20/15 A3007 RMK AO2 T02040148
KMWK 250135Z AUTO 16003KT 10SM SCT085 SCT110 21/15 A3006 RMK AO2 T02080149
KMWK 250115Z AUTO 17003KT 10SM CLR 21/15 A3007 RMK AO2 T02100147
KMWK 250055Z AUTO 00000KT 10SM SCT095 21/15 A3007 RMK AO2 T02100148
KMWK 250035Z AUTO 14004KT 10SM SCT065 BKN095 21/15 A3007 RMK AO2 T02100147
KMWK 250015Z AUTO 00000KT 10SM BKN095 22/15 A3008 RMK AO2 T02150146
KMWK 242355Z AUTO 17003KT 10SM SCT095 22/15 A3007 RMK AO2 T02170145 10240 20170
KMWK 242335Z AUTO 00000KT 10SM CLR 22/15 A3006 RMK AO2 T02200145
KMWK 242315Z AUTO 16003KT 10SM CLR 23/14 A3006 RMK AO2 T02250144
KMWK 242255Z AUTO 20005KT 10SM CLR 23/14 A3006 RMK AO2 T02280140
KMWK 242235Z AUTO 17006KT 10SM CLR 23/14 A3006 RMK AO2 T02310140
KMWK 242215Z AUTO 18005KT 10SM CLR 23/14 A3005 RMK AO2 T02320140
KMWK 242155Z AUTO 20007G18KT 150V230 10SM SCT070 24/14 A3005 RMK AO2 T02380140
KMWK 242135Z AUTO 21008G15KT 180V250 10SM SCT042 SCT060 SCT070 24/14 A3006 RMK AO2 T02380142
KMWK 242115Z AUTO 21008G15KT 150V230 10SM BKN042 BKN060 BKN070 24/15 A3005 RMK AO2 T02380146
KMWK 242055Z AUTO 00000KT 10SM BKN040 BKN047 23/16 A3005 RMK AO2 T02300158
KMWK 242035Z AUTO 00000KT 10SM SCT042 SCT050 23/16 A3006 RMK AO2 T02280160
KMWK 242015Z AUTO 00000KT 10SM SCT038 SCT044 SCT080 23/16 A3008 RMK AO2 T02310162
KMWK 241955Z AUTO 00000KT 10SM SCT040 SCT080 23/16 A3008 RMK AO2 T02270164
KMWK 241935Z AUTO 00000KT 10SM SCT080 22/16 A3010 RMK AO2 T02160159
KMWK 241915Z AUTO 28004KT 10SM SCT080 21/16 A3010 RMK AO2 T02130161
KMWK 241855Z AUTO 00000KT 10SM SCT015 21/16 A3011 RMK AO2 T02070161
KMWK 241835Z AUTO 00000KT 10SM SCT015 20/16 A3013 RMK AO2 T01980158
KMWK 241815Z AUTO 00000KT 10SM CLR 18/15 A3014 RMK AO2 T01800148
KMWK 241755Z AUTO 00000KT 7SM CLR 17/14 A3017 RMK AO2 T01690143 10169 20085
KMWK 241735Z AUTO 00000KT 7SM SCT070 16/14 A3018 RMK AO2 T01580136
KMWK 241715Z AUTO 17003KT 5SM BR BKN060 15/13 A3019 RMK AO2 T01490127
KMWK 241655Z AUTO 00000KT 5SM BR BKN060 14/12 A3020 RMK AO2 T01420122
KMWK 241635Z AUTO 14003KT 4SM BR BKN060 14/12 A3020 RMK AO2 T01400120
KMWK 241615Z AUTO 00000KT 3SM BR OVC070 14/12 A3021 RMK AO2 T01360116
KMWK 241555Z AUTO 00000KT 4SM -DZ SCT009 SCT012 BKN070 13/11 A3021 RMK AO2 T01330113
KMWK 241535Z AUTO 00000KT 3SM -RA BKN009 BKN014 OVC080 13/11 A3022 RMK AO2 T01330113
KMWK 241515Z AUTO 18003KT 5SM BR BKN080 13/11 A3022 RMK AO2 T01320112
KMWK 241455Z AUTO 00000KT 5SM BR BKN080 13/11 A3022 RMK AO2 T01290109
KMWK 241435Z AUTO 00000KT 4SM BR BKN090 13/11 A3021 RMK AO2 T01260106
KMWK 241415Z AUTO 00000KT 4SM BR SCT090 13/11 A3022 RMK AO2 T01260106
KMWK 241355Z AUTO 00000KT 4SM BR CLR 12/10 A3022 RMK AO2 T01230103
KMWK 241335Z AUTO 00000KT 2 1/2SM BR 12/10 A3022 RMK AO2 SKY OBSCURED T01200101
KMWK 241315Z AUTO 00000KT 1/2SM FG OVC001 11/09 A3022 RMK AO2 T01080089
KMWK 241255Z AUTO 00000KT M1/4SM FG OVC001 11/09 A3021 RMK AO2 T01050086
KMWK 241235Z AUTO 00000KT 1/4SM FG OVC001 10/08 A3022 RMK AO2 T01000081
KMWK 241215Z AUTO 00000KT 3/4SM BR OVC001 09/07 A3022 RMK AO2 T00860068
KMWK 241155Z AUTO 00000KT 2SM BR OVC001 09/07 A3022 RMK AO2 T00900071 10107 20088
KMWK 241135Z AUTO 00000KT 2SM BR 11/09 A3022 RMK AO2 SKY OBSCURED T01070088
KMWK 241115Z AUTO 00000KT 1 1/4SM BR SCT001 10/08 A3022 RMK AO2 T00960077
KMWK 241055Z AUTO 00000KT 1/2SM FG OVC001 09/07 A3022 RMK AO2 T00910072
KMWK 241035Z AUTO 00000KT 1/2SM FG OVC001 09/08 A3022 RMK AO2 T00920075
KMWK 241015Z AUTO 00000KT 1/2SM FG OVC001 10/08 A3022 RMK AO2 T00950075
KMWK 240955Z AUTO 00000KT 1/4SM FG OVC001 10/08 A3022 RMK AO2 T00950075
KMWK 240935Z AUTO 00000KT 3/4SM BR OVC001 09/07 A3023 RMK AO2 T00930074
KMWK 240915Z AUTO 32003KT 3SM BR OVC001 09/08 A3023 RMK AO2 T00940075
KMWK 240855Z AUTO 00000KT 2 1/2SM BR 10/08 A3024 RMK AO2 SKY OBSCURED T00970079
KMWK 240835Z AUTO 00000KT 5SM BR CLR 10/08 A3024 RMK AO2 T00980080
KMWK 240815Z AUTO 00000KT 5SM BR CLR 10/08 A3025 RMK AO2 T01000081
KMWK 240755Z AUTO 00000KT 5SM BR CLR 09/08 A3025 RMK AO2 T00930075
KMWK 240735Z AUTO 00000KT 3SM BR 10/08 A3026 RMK AO2 SKY OBSCURED T00950075
KMWK 240715Z AUTO 00000KT 3/4SM BR OVC001 10/08 A3027 RMK AO2 T00970079
KMWK 240655Z AUTO 00000KT 1/4SM FG OVC001 10/08 A3027 RMK AO2 T00990081
KMWK 240635Z AUTO 00000KT 1/4SM FG OVC001 10/08 A3028 RMK AO2 T00980080
KMWK 240615Z AUTO 00000KT 1 1/4SM BR BKN001 10/08 A3028 RMK AO2 T01000081
KMWK 240555Z AUTO 00000KT 2 1/2SM BR 10/08 A3029 RMK AO2 SKY OBSCURED T01020084 10140 20101 401860101
KMWK 240535Z AUTO 00000KT 2 1/2SM BR 11/09 A3030 RMK AO2 SKY OBSCURED T01090091
KMWK 240515Z AUTO 00000KT 3SM BR 11/09 A3030 RMK AO2 SKY OBSCURED T01070089
KMWK 240455Z AUTO 00000KT 3SM BR 11/09 A3030 RMK AO2 SKY OBSCURED T01120093
KMWK 240435Z AUTO 00000KT 5SM BR SCT001 11/09 A3030 RMK AO2 T01050086
KMWK 240415Z AUTO 00000KT 3SM BR 11/09 A3032 RMK AO2 SKY OBSCURED T01120093
KMWK 240355Z AUTO 00000KT 1 1/4SM BR VV007 12/10 A3032 RMK AO2 VIS 1/2V3 T01160097
KMWK 240335Z AUTO 00000KT 1 1/2SM BR VV007 11/09 A3032 RMK AO2 VIS 3/4V5 T01140094
KMWK 240315Z AUTO 00000KT 4SM BR CLR 11/09 A3033 RMK AO2 T01120092
KMWK 240255Z AUTO 00000KT 5SM BR CLR 12/10 A3033 RMK AO2 T01150095
KMWK 240235Z AUTO 00000KT 5SM BR CLR 12/10 A3034 RMK AO2 T01230103
KMWK 240215Z AUTO 00000KT 5SM BR CLR 12/10 A3035 RMK AO2 T01240104
KMWK 240155Z AUTO 00000KT 7SM SCT070 SCT075 13/11 A3035 RMK AO2 T01260105